Flight Track Log - Related Links

Times and Time Zones

All times are in EDT time to prevent confusion due to time zone crossing. See the FLG3776 flight status page for this flight to view local times or setup timezone preferences in your user account.

Time Position Orientation Groundspeed Altitude Reporting Facility
EDT Latitude Longitude Course Direction KTS MPH feet Rate Location/Type
Thu 09:01:22 PM 44.8500 -93.2000 117° Southeast 166 191 2,700  Level Minneapolis TRACON
Thu 09:01:44 PM 44.8381 -93.1800 130° Southeast 174 200 3,200 1,786 Climbing Minneapolis Center
Thu 09:02:46 PM 44.8078 -93.0989 118° Southeast 241 277 5,200 2,226 Climbing Minneapolis Center
Thu 09:03:00 PM 44.7403 -92.7504 110° East  Level Estimated
Thu 09:03:48 PM 44.7786 -92.9939 111° Southeast 283 326 7,800  Level Minneapolis Center
Thu 09:04:00 PM 44.6927 -92.5938 118° Southeast  Level Estimated
Thu 09:04:50 PM 44.7464 -92.8794 112° Southeast 311 358 10,500  Level Minneapolis Center
Thu 09:05:00 PM 44.6449 -92.4375 115° Southeast  Level Estimated
Thu 09:05:52 PM 44.6992 -92.7239 113° Southeast 371 427 12,200  Level Minneapolis Center
Thu 09:06:00 PM 44.5808 -92.2845 117° Southeast  Level FlightAware Approximate
Thu 09:06:54 PM 44.6564 -92.5814 113° Southeast 397 457 13,800  Level Minneapolis Center
Thu 09:07:56 PM 44.6119 -92.4325 113° Southeast 413 475 15,600 1,839 Climbing Minneapolis Center
Thu 09:08:58 PM 44.5619 -92.2669 113° Southeast 422 486 17,600 1,632 Climbing Minneapolis Center
Thu 09:10:01 PM 44.5206 -92.1336 113° Southeast 418 481 19,000 1,392 Climbing Minneapolis Center
Thu 09:11:03 PM 44.4647 -91.9533 113° Southeast 420 483 20,500 1,355 Climbing Minneapolis Center
Thu 09:12:05 PM 44.4186 -91.7981 113° Southeast 430 495 21,800 1,258 Climbing Minneapolis Center
Thu 09:13:07 PM 44.3703 -91.6411 113° Southeast 438 504 23,100 1,113 Climbing Minneapolis Center
Thu 09:14:09 PM 44.3208 -91.4836 114° Southeast 443 510 24,100 968 Climbing Minneapolis Center
Thu 09:15:11 PM 44.2708 -91.3206 113° Southeast 453 521 25,100 968 Climbing Minneapolis Center
Thu 09:16:13 PM 44.2211 -91.1628 114° Southeast 458 527 26,100 919 Climbing Minneapolis Center
Thu 09:17:15 PM 44.1589 -90.9678 114° Southeast 461 531 27,000 435 Climbing Minneapolis Center
Thu 09:18:17 PM 44.1050 -90.7989 114° Southeast 474 545 27,000  Level Minneapolis Center
Thu 09:19:19 PM 44.0497 -90.6247 114° Southeast 491 565 27,000  Level Minneapolis Center
Thu 09:20:21 PM 43.9872 -90.4306 114° Southeast 499 574 27,000  Level Minneapolis Center
Thu 09:21:23 PM 43.9300 -90.2533 114° Southeast 501 577 27,000  Level Minneapolis Center
Thu 09:22:25 PM 43.8708 -90.0764 115° Southeast 504 580 27,000  Level Minneapolis Center
Thu 09:23:27 PM 43.8125 -89.8992 114° Southeast 506 582 27,000  Level Minneapolis Center
Thu 09:24:29 PM 43.7450 -89.6936 114° Southeast 504 580 27,000  Level Minneapolis Center
Thu 09:25:31 PM 43.6861 -89.5172 115° Southeast 506 582 27,000  Level Minneapolis Center
Thu 09:26:33 PM 43.6272 -89.3431 115° Southeast 504 580 27,000  Level Minneapolis Center
Thu 09:27:25 PM 43.5772 -89.1981 115° Southeast 503 579 27,000  Level Chicago Center
Thu 09:28:26 PM 43.5172 -89.0222 115° Southeast 508 585 27,000  Level Chicago Center
Thu 09:29:28 PM 43.4572 -88.8483 115° Southeast 505 581 27,000  Level Chicago Center
Thu 09:30:30 PM 43.3875 -88.6461 115° Southeast 507 583 27,000  Level Chicago Center
Thu 09:31:32 PM 43.3286 -88.4761 115° Southeast 509 586 27,000  Level Chicago Center
Thu 09:32:34 PM 43.2669 -88.3022 116° Southeast 512 589 27,000  Level Chicago Center
Thu 09:33:36 PM 43.1961 -88.0994 116° Southeast 509 586 27,000  Level Chicago Center
Thu 09:34:38 PM 43.1350 -87.9253 116° Southeast 509 586 27,000 -48 Level Chicago Center
Thu 09:35:40 PM 43.0736 -87.7525 116° Southeast 506 582 26,900 -532 Descending Chicago Center
Thu 09:36:42 PM 43.0111 -87.5778 116° Southeast 511 588 25,900 -1,065 Descending Chicago Center
Thu 09:37:44 PM 42.9475 -87.4056 117° Southeast 509 586 24,700 -1,548 Descending Chicago Center
Thu 09:38:46 PM 42.8864 -87.2372 116° Southeast 509 586 22,700 -1,951 Descending Chicago Center
Thu 09:39:47 PM 42.8253 -87.0703 116° Southeast 498 573 20,700 -2,049 Descending Chicago Center
Thu 09:40:49 PM 42.7544 -86.8789 117° Southeast 479 551 18,500 -1,645 Descending Chicago Center
Thu 09:41:51 PM 42.6956 -86.7228 117° Southeast 470 541 17,300 -1,210 Descending Chicago Center
Thu 09:42:53 PM 42.6400 -86.5697 116° Southeast 459 528 16,000 -1,113 Descending Chicago Center
Thu 09:43:55 PM 42.5847 -86.4208 117° Southeast 449 517 15,000 -1,597 Descending Chicago Center
Thu 09:44:57 PM 42.5303 -86.2786 117° Southeast 434 499 12,700 -2,081 Descending Chicago Center
Thu 09:45:59 PM 42.4747 -86.1314 117° Southeast 374 430 10,700 -1,561 Descending Chicago Center
Thu 09:47:00 PM 42.4339 -86.0294 118° Southeast 317 365 9,500 -1,415 Descending Chicago Center
Thu 09:48:02 PM 42.3953 -85.9372 120° Southeast 291 335 7,800 -1,694 Descending Chicago Center
Thu 09:49:04 PM 42.3464 -85.8575 130° Southeast 282 325 6,000 -1,694 Descending Chicago Center
Thu 09:50:06 PM 42.2969 -85.7842 132° Southeast 270 311 4,300 -1,210 Descending Chicago Center
Thu 09:51:08 PM 42.2497 -85.7106 131° Southeast 245 282 3,500 -585 Descending Chicago Center
Thu 09:52:09 PM 42.2097 -85.6533 133° Southeast 217 250 3,100 -341 Descending Chicago Center
Thu 09:53:11 PM 42.1622 -85.6372 166° South 183 211 2,800 -290 Descending Chicago Center

Login

Don't have an account? Register now (free) for customized features, flight alerts, and more!